createdAt,value
2023-02-16T00:01:02.900Z,20.83
2023-02-16T00:02:05.559Z,22.03
2023-02-16T00:03:20.956Z,21.27
2023-02-16T00:04:28.994Z,22.23
2023-02-16T00:05:34.012Z,23.73
2023-02-16T00:06:36.200Z,21.23
2023-02-16T00:07:38.408Z,23.90
2023-02-16T00:08:41.084Z,22.17
2023-02-16T00:09:43.253Z,21.10
2023-02-16T00:11:05.955Z,25.13
2023-02-16T00:12:38.133Z,21.97
2023-02-16T00:13:48.047Z,21.00
2023-02-16T00:14:51.021Z,21.03
2023-02-16T00:15:53.255Z,21.70
2023-02-16T00:16:57.646Z,22.03
2023-02-16T00:18:08.364Z,19.97
2023-02-16T00:19:19.718Z,22.07
2023-02-16T00:20:23.674Z,19.13
2023-02-16T00:21:26.070Z,22.53
2023-02-16T00:22:28.289Z,20.37
2023-02-16T00:23:31.589Z,19.87
2023-02-16T00:24:34.101Z,22.30
2023-02-16T00:25:36.834Z,24.27
2023-02-16T00:26:41.059Z,23.77
2023-02-16T00:27:43.552Z,22.77
2023-02-16T00:28:48.989Z,23.57
2023-02-16T00:29:51.463Z,20.17
2023-02-16T00:30:55.203Z,21.20
2023-02-16T00:31:59.692Z,20.43
2023-02-16T00:33:01.894Z,21.00
2023-02-16T00:34:37.879Z,20.93
2023-02-16T00:35:42.285Z,23.23
2023-02-16T00:36:45.717Z,21.30
2023-02-16T00:37:49.155Z,22.10
2023-02-16T00:38:52.649Z,20.80
2023-02-16T00:39:56.402Z,22.53
2023-02-16T00:40:59.691Z,20.80
2023-02-16T00:42:21.260Z,20.97
2023-02-16T00:43:29.150Z,20.20
2023-02-16T00:44:38.318Z,22.80
2023-02-16T00:45:42.970Z,19.63
2023-02-16T00:46:46.161Z,21.07
2023-02-16T00:47:50.663Z,21.60
2023-02-16T00:48:53.325Z,22.47
2023-02-16T00:49:55.876Z,21.60
2023-02-16T00:50:58.096Z,20.47
2023-02-16T00:52:00.378Z,21.73
2023-02-16T00:53:03.181Z,20.77
2023-02-16T00:54:05.412Z,19.80
2023-02-16T00:55:14.734Z,20.23
2023-02-16T00:56:20.625Z,20.70
2023-02-16T00:57:24.032Z,21.90
2023-02-16T00:58:30.976Z,22.33
2023-02-16T00:59:33.289Z,19.87
2023-02-16T01:00:42.719Z,20.23
2023-02-16T01:01:45.423Z,20.63
2023-02-16T01:02:50.930Z,21.13
2023-02-16T01:03:55.438Z,18.60
2023-02-16T01:04:59.804Z,23.73
2023-02-16T01:06:20.910Z,20.43
2023-02-16T01:07:44.505Z,21.90
2023-02-16T01:09:05.599Z,20.07
2023-02-16T01:10:28.052Z,19.97
2023-02-16T01:11:31.533Z,18.83
2023-02-16T01:12:33.765Z,20.20
2023-02-16T01:13:43.793Z,20.90
2023-02-16T01:14:49.074Z,19.53
2023-02-16T01:15:51.360Z,21.87
2023-02-16T01:16:54.804Z,20.27
2023-02-16T01:17:57.186Z,22.17
2023-02-16T01:18:59.406Z,19.93
2023-02-16T01:20:01.636Z,18.50
2023-02-16T01:21:04.060Z,19.87
2023-02-16T01:22:07.548Z,19.73
2023-02-16T01:23:09.818Z,20.33
2023-02-16T01:24:12.080Z,18.80
2023-02-16T01:25:15.976Z,19.73
2023-02-16T01:26:20.472Z,19.20
2023-02-16T01:27:22.641Z,20.63
2023-02-16T01:28:26.473Z,18.93
2023-02-16T01:29:28.750Z,20.07
2023-02-16T01:30:31.020Z,21.20
2023-02-16T01:31:35.015Z,19.90
2023-02-16T01:32:38.247Z,18.03
2023-02-16T01:33:43.309Z,19.43
2023-02-16T01:34:45.583Z,19.50
2023-02-16T01:35:55.395Z,18.30
2023-02-16T01:36:57.701Z,18.67
2023-02-16T01:38:00.131Z,19.87
2023-02-16T01:39:02.867Z,18.00
2023-02-16T01:40:05.612Z,18.50
2023-02-16T01:41:44.932Z,20.27
2023-02-16T01:42:55.095Z,18.63
2023-02-16T01:44:05.170Z,18.40
2023-02-16T01:45:15.832Z,21.43
2023-02-16T01:46:36.274Z,17.80
2023-02-16T01:47:45.086Z,17.83
2023-02-16T01:48:47.349Z,19.87
2023-02-16T01:49:49.896Z,19.33
2023-02-16T01:51:03.194Z,18.37
2023-02-16T01:52:33.143Z,20.57
2023-02-16T01:53:43.660Z,18.43
2023-02-16T01:54:56.493Z,18.87
2023-02-16T01:56:04.419Z,18.53
2023-02-16T01:57:29.362Z,19.83
2023-02-16T01:58:38.263Z,19.13
2023-02-16T02:00:05.217Z,18.00
2023-02-16T02:01:42.443Z,19.40
2023-02-16T02:02:49.608Z,19.67
2023-02-16T02:04:10.810Z,19.47
2023-02-16T02:05:35.553Z,17.73
2023-02-16T02:06:37.953Z,20.03
2023-02-16T02:07:50.363Z,19.80
2023-02-16T02:09:12.195Z,18.73
2023-02-16T02:10:21.752Z,20.73
2023-02-16T02:11:34.098Z,18.47
2023-02-16T02:13:03.708Z,20.10
2023-02-16T02:14:11.532Z,20.03
2023-02-16T02:15:15.967Z,19.07
2023-02-16T02:16:21.350Z,17.83
2023-02-16T02:17:25.292Z,20.27
2023-02-16T02:18:27.619Z,19.77
2023-02-16T02:19:38.816Z,20.60
2023-02-16T02:21:14.929Z,21.43
2023-02-16T02:23:01.087Z,20.47
2023-02-16T02:24:38.560Z,18.97
2023-02-16T02:26:13.598Z,19.67
2023-02-16T02:27:26.847Z,19.07
2023-02-16T02:28:39.212Z,20.00
2023-02-16T02:30:12.722Z,21.33
2023-02-16T02:31:39.930Z,20.37
2023-02-16T02:32:50.341Z,19.40
2023-02-16T02:34:20.382Z,21.03
2023-02-16T02:35:22.643Z,20.03
2023-02-16T02:36:40.752Z,19.70
2023-02-16T02:38:02.239Z,19.20
2023-02-16T02:39:23.854Z,20.07
2023-02-16T02:40:41.472Z,20.73
2023-02-16T02:42:04.158Z,17.90
2023-02-16T02:43:14.105Z,19.77
2023-02-16T02:44:22.368Z,18.83
2023-02-16T02:45:31.872Z,21.03
2023-02-16T02:46:37.901Z,22.63
2023-02-16T02:47:46.354Z,20.93
2023-02-16T02:48:49.663Z,19.77
2023-02-16T02:49:54.749Z,19.77
2023-02-16T02:51:22.392Z,20.03
2023-02-16T02:52:25.326Z,19.77
2023-02-16T02:53:27.545Z,19.60
2023-02-16T02:54:52.053Z,21.03
2023-02-16T02:56:12.891Z,18.00
2023-02-16T02:57:58.363Z,17.27
2023-02-16T02:59:27.134Z,17.80
2023-02-16T03:00:47.428Z,19.03
2023-02-16T03:01:56.487Z,19.90
2023-02-16T03:03:05.764Z,18.83
2023-02-16T03:04:13.765Z,20.07
2023-02-16T03:05:20.982Z,18.80
2023-02-16T03:06:27.837Z,22.10
2023-02-16T03:07:47.326Z,19.27
2023-02-16T03:08:55.143Z,18.43
2023-02-16T03:10:17.425Z,20.07
2023-02-16T03:11:41.621Z,19.47
2023-02-16T03:12:45.848Z,17.70
2023-02-16T03:13:56.675Z,18.70
2023-02-16T03:15:01.787Z,17.70
2023-02-16T03:16:10.267Z,19.50
2023-02-16T03:17:35.529Z,19.77
2023-02-16T03:18:58.867Z,17.93
2023-02-16T03:20:26.327Z,19.10
2023-02-16T03:21:47.995Z,18.40
2023-02-16T03:23:10.094Z,21.57
2023-02-16T03:24:38.166Z,19.77
2023-02-16T03:25:59.489Z,16.70
2023-02-16T03:27:21.950Z,17.77
2023-02-16T03:28:47.844Z,18.13
2023-02-16T03:29:52.450Z,16.70
2023-02-16T03:30:55.973Z,18.50
2023-02-16T03:31:59.219Z,18.80
2023-02-16T03:33:01.811Z,19.20
2023-02-16T03:34:05.375Z,17.00
2023-02-16T03:35:08.829Z,18.37
2023-02-16T03:36:12.236Z,18.87
2023-02-16T03:37:15.244Z,17.60
2023-02-16T03:38:17.739Z,19.40
2023-02-16T03:39:20.780Z,18.17
2023-02-16T03:40:29.384Z,18.80
2023-02-16T03:41:34.091Z,20.30
2023-02-16T03:42:41.679Z,18.77
2023-02-16T03:43:43.905Z,17.97
2023-02-16T03:44:46.089Z,17.80
2023-02-16T03:45:48.325Z,17.90
2023-02-16T03:46:51.533Z,18.40
2023-02-16T03:47:55.817Z,20.43
2023-02-16T03:48:59.301Z,16.93
2023-02-16T03:50:02.418Z,18.63
2023-02-16T03:51:04.932Z,18.37
2023-02-16T03:52:07.604Z,17.40
2023-02-16T03:53:11.506Z,19.53
2023-02-16T03:54:14.015Z,16.47
2023-02-16T03:55:16.391Z,19.70
2023-02-16T03:56:18.775Z,19.53
2023-02-16T03:57:22.128Z,17.07
2023-02-16T03:58:25.359Z,19.07
2023-02-16T03:59:27.602Z,17.80
2023-02-16T04:00:29.957Z,20.17
2023-02-16T04:01:32.318Z,19.60
2023-02-16T04:02:34.910Z,17.90
2023-02-16T04:03:37.421Z,16.83
2023-02-16T04:04:39.669Z,18.33
2023-02-16T04:05:42.403Z,18.87
2023-02-16T04:06:44.587Z,17.20
2023-02-16T04:07:46.839Z,19.50
2023-02-16T04:08:51.313Z,16.53
2023-02-16T04:09:54.806Z,18.67
2023-02-16T04:10:57.684Z,17.07
2023-02-16T04:12:18.490Z,17.50
2023-02-16T04:13:20.814Z,17.37
2023-02-16T04:14:23.073Z,17.33
2023-02-16T04:15:28.287Z,17.47
2023-02-16T04:16:30.623Z,17.30
2023-02-16T04:17:32.893Z,17.67
2023-02-16T04:18:35.058Z,18.43
2023-02-16T04:19:37.363Z,17.50
2023-02-16T04:20:39.572Z,17.17
2023-02-16T04:21:43.132Z,17.23
2023-02-16T04:22:46.365Z,19.73
2023-02-16T04:23:48.533Z,20.27
2023-02-16T04:24:52.140Z,17.43
2023-02-16T04:25:54.378Z,19.17
2023-02-16T04:26:57.012Z,18.83
2023-02-16T04:27:59.542Z,18.43
2023-02-16T04:29:02.920Z,18.03
2023-02-16T04:30:06.975Z,16.47
2023-02-16T04:31:09.375Z,16.67
2023-02-16T04:32:12.207Z,16.60
2023-02-16T04:33:14.557Z,16.70
2023-02-16T04:34:17.922Z,19.43
2023-02-16T04:35:20.698Z,16.40
2023-02-16T04:36:23.204Z,15.63
2023-02-16T04:37:25.537Z,17.70
2023-02-16T04:38:27.709Z,17.30
2023-02-16T04:39:31.528Z,20.07
2023-02-16T04:40:34.088Z,18.90
2023-02-16T04:41:36.219Z,16.60
2023-02-16T04:42:38.508Z,18.93
2023-02-16T04:43:41.901Z,18.20
2023-02-16T04:44:45.289Z,19.97
2023-02-16T04:45:47.593Z,17.90
2023-02-16T04:46:49.921Z,17.50
2023-02-16T04:47:53.763Z,19.00
2023-02-16T04:48:56.301Z,15.50
2023-02-16T04:49:58.493Z,16.93
2023-02-16T04:51:03.361Z,17.27
2023-02-16T04:52:05.835Z,17.27
2023-02-16T04:53:08.053Z,17.90
2023-02-16T04:54:10.406Z,17.67
2023-02-16T04:55:12.561Z,16.87
2023-02-16T04:56:15.376Z,17.80
2023-02-16T04:57:19.429Z,16.93
2023-02-16T04:58:22.785Z,18.43
2023-02-16T04:59:25.278Z,18.93
2023-02-16T05:00:27.446Z,20.07
2023-02-16T05:01:29.920Z,18.30
2023-02-16T05:02:32.809Z,17.00
2023-02-16T05:03:35.873Z,18.73
2023-02-16T05:04:38.184Z,17.43
2023-02-16T05:05:40.698Z,15.47
2023-02-16T05:06:43.233Z,19.03
2023-02-16T05:07:45.865Z,16.23
2023-02-16T05:08:49.167Z,17.20
2023-02-16T05:09:51.698Z,18.10
2023-02-16T05:11:12.471Z,16.90
2023-02-16T05:12:33.487Z,17.57
2023-02-16T05:13:54.656Z,18.60
2023-02-16T05:14:56.985Z,18.10
2023-02-16T05:15:59.443Z,18.00
2023-02-16T05:17:01.971Z,17.13
2023-02-16T05:18:04.268Z,19.83
2023-02-16T05:19:06.468Z,19.97
2023-02-16T05:20:09.256Z,18.97
2023-02-16T05:21:29.814Z,16.63
2023-02-16T05:22:35.766Z,18.07
2023-02-16T05:23:39.284Z,19.57
2023-02-16T05:24:42.378Z,18.87
2023-02-16T05:25:44.640Z,18.03
2023-02-16T05:26:46.840Z,17.00
2023-02-16T05:27:48.984Z,17.13
2023-02-16T05:28:51.244Z,18.47
2023-02-16T05:29:53.475Z,17.37
2023-02-16T05:30:57.904Z,19.77
2023-02-16T05:32:01.488Z,19.17
2023-02-16T05:33:05.488Z,16.47
2023-02-16T05:34:07.697Z,17.23
2023-02-16T05:35:10.087Z,20.47
2023-02-16T05:36:12.324Z,18.27
2023-02-16T05:37:17.920Z,19.40
2023-02-16T05:38:20.474Z,18.73
2023-02-16T05:39:22.849Z,20.00
2023-02-16T05:40:25.682Z,20.07
2023-02-16T05:41:27.840Z,19.30
2023-02-16T05:42:30.660Z,19.10
2023-02-16T05:43:32.924Z,19.00
2023-02-16T05:44:35.440Z,20.53
2023-02-16T05:45:39.723Z,19.60
2023-02-16T05:46:42.260Z,20.40
2023-02-16T05:47:47.018Z,21.40
2023-02-16T05:48:49.605Z,20.27
2023-02-16T05:49:51.812Z,18.63
2023-02-16T05:50:54.985Z,19.30
2023-02-16T05:51:59.708Z,22.87
2023-02-16T05:53:02.762Z,18.60
2023-02-16T05:54:05.710Z,23.23
2023-02-16T05:55:08.264Z,20.73
2023-02-16T05:56:11.519Z,21.80
2023-02-16T05:57:15.977Z,22.30
2023-02-16T05:58:18.163Z,20.50
2023-02-16T05:59:21.237Z,18.40
2023-02-16T06:00:23.619Z,19.93
2023-02-16T06:01:27.465Z,20.63
2023-02-16T06:02:30.100Z,21.33
2023-02-16T06:03:32.861Z,21.03
2023-02-16T06:04:35.134Z,16.87
2023-02-16T06:05:37.622Z,19.57
2023-02-16T06:06:39.940Z,20.03
2023-02-16T06:07:42.944Z,18.97
2023-02-16T06:08:45.684Z,19.83
2023-02-16T06:09:50.575Z,19.10
2023-02-16T06:10:56.186Z,19.17
2023-02-16T06:11:58.803Z,20.20
2023-02-16T06:13:01.176Z,21.20
2023-02-16T06:14:08.367Z,21.50
2023-02-16T06:15:11.288Z,19.77
2023-02-16T06:16:14.542Z,19.57
2023-02-16T06:17:16.741Z,19.87
2023-02-16T06:18:19.280Z,19.27
2023-02-16T06:19:21.458Z,19.77
2023-02-16T06:20:23.605Z,20.03
2023-02-16T06:21:26.500Z,20.20
2023-02-16T06:22:28.643Z,19.53
2023-02-16T06:23:30.985Z,18.60
2023-02-16T06:24:33.255Z,18.43
2023-02-16T06:25:35.475Z,19.67
2023-02-16T06:26:37.961Z,21.17
2023-02-16T06:27:40.140Z,19.93
2023-02-16T06:28:42.729Z,18.83
2023-02-16T06:29:45.001Z,19.33
2023-02-16T06:30:48.306Z,19.43
2023-02-16T06:31:50.566Z,20.50
2023-02-16T06:32:52.773Z,21.60
2023-02-16T06:33:57.026Z,20.20
2023-02-16T06:34:59.311Z,19.10
2023-02-16T06:36:01.513Z,21.43
2023-02-16T06:37:04.472Z,17.37
2023-02-16T06:38:06.618Z,20.60
2023-02-16T06:39:08.824Z,20.00
2023-02-16T06:40:14.439Z,20.53
2023-02-16T06:41:32.216Z,21.97
2023-02-16T06:42:36.518Z,21.80
2023-02-16T06:43:38.820Z,23.80
2023-02-16T06:44:44.372Z,19.10
2023-02-16T06:45:47.154Z,21.47
2023-02-16T06:46:49.488Z,20.37
2023-02-16T06:47:51.658Z,22.83
2023-02-16T06:48:54.282Z,20.70
2023-02-16T06:49:56.454Z,21.17
2023-02-16T06:50:58.900Z,20.73
2023-02-16T06:52:01.095Z,21.27
2023-02-16T06:53:03.528Z,21.23
2023-02-16T06:54:05.878Z,20.67
2023-02-16T06:55:09.023Z,23.23
2023-02-16T06:56:11.390Z,20.00
2023-02-16T06:57:13.538Z,22.60
2023-02-16T06:58:15.731Z,20.73
2023-02-16T06:59:17.966Z,21.57
2023-02-16T07:00:23.213Z,22.13
2023-02-16T07:01:26.260Z,21.47
2023-02-16T07:02:28.523Z,23.10
2023-02-16T07:03:32.445Z,22.83
2023-02-16T07:04:34.669Z,22.53
2023-02-16T07:05:36.928Z,23.70
2023-02-16T07:06:40.370Z,23.17
2023-02-16T07:07:43.199Z,22.60
2023-02-16T07:08:45.972Z,22.87
2023-02-16T07:09:48.406Z,25.43
2023-02-16T07:10:50.739Z,23.13
2023-02-16T07:11:53.661Z,22.47
2023-02-16T07:12:55.817Z,23.13
2023-02-16T07:13:58.012Z,21.77
2023-02-16T07:15:00.387Z,23.87
2023-02-16T07:16:04.554Z,23.93
2023-02-16T07:17:07.928Z,24.10
2023-02-16T07:18:10.171Z,21.43
2023-02-16T07:19:12.461Z,23.73
2023-02-16T07:20:14.741Z,22.07
2023-02-16T07:21:17.852Z,20.67
2023-02-16T07:22:20.078Z,21.87
2023-02-16T07:23:22.711Z,21.70
2023-02-16T07:24:24.913Z,25.10
2023-02-16T07:25:28.781Z,21.60
2023-02-16T07:26:31.539Z,21.37
2023-02-16T07:27:33.914Z,20.93
2023-02-16T07:28:36.185Z,21.20
2023-02-16T07:29:38.800Z,22.77
2023-02-16T07:30:41.747Z,23.10
2023-02-16T07:31:44.209Z,23.43
2023-02-16T07:32:47.617Z,23.00
2023-02-16T07:33:49.781Z,22.97
2023-02-16T07:34:51.939Z,23.40
2023-02-16T07:35:54.188Z,23.50
2023-02-16T07:36:56.610Z,23.70
2023-02-16T07:38:01.712Z,22.87
2023-02-16T07:39:04.501Z,23.60
2023-02-16T07:40:07.391Z,22.67
2023-02-16T07:41:11.572Z,22.50
2023-02-16T07:42:14.319Z,20.70
2023-02-16T07:43:21.842Z,22.07
2023-02-16T07:44:24.029Z,23.57
2023-02-16T07:45:26.720Z,22.60
2023-02-16T07:46:31.054Z,22.20
2023-02-16T07:47:34.627Z,19.70
2023-02-16T07:48:36.764Z,23.33
2023-02-16T07:49:40.606Z,21.27
2023-02-16T07:50:42.861Z,22.60
2023-02-16T07:51:46.335Z,23.83
2023-02-16T07:52:48.583Z,23.00
2023-02-16T07:53:51.769Z,20.60
2023-02-16T07:54:53.981Z,24.30
2023-02-16T07:55:57.427Z,23.70
2023-02-16T07:56:59.796Z,22.17
2023-02-16T07:58:02.184Z,21.93
2023-02-16T07:59:05.717Z,25.00
2023-02-16T08:00:08.657Z,23.67
2023-02-16T08:01:17.935Z,27.40
2023-02-16T08:02:21.654Z,28.10
2023-02-16T08:03:26.699Z,29.60
2023-02-16T08:04:28.965Z,28.17
2023-02-16T08:05:31.232Z,24.47
2023-02-16T08:06:35.410Z,26.70
2023-02-16T08:07:38.651Z,24.27
2023-02-16T08:08:41.627Z,25.20
2023-02-16T08:09:44.036Z,23.03
2023-02-16T08:10:46.614Z,24.00
2023-02-16T08:11:48.874Z,20.73
2023-02-16T08:12:51.123Z,21.90
2023-02-16T08:13:53.343Z,21.10
2023-02-16T08:14:55.725Z,25.87
2023-02-16T08:15:58.004Z,21.50
2023-02-16T08:17:01.487Z,22.03
2023-02-16T08:18:03.993Z,22.67
2023-02-16T08:19:06.256Z,24.40
2023-02-16T08:20:09.890Z,23.53
2023-02-16T08:21:19.288Z,21.43
2023-02-16T08:22:21.645Z,21.70
2023-02-16T08:23:23.969Z,21.87
2023-02-16T08:24:26.718Z,22.40
2023-02-16T08:25:29.769Z,19.67
2023-02-16T08:26:40.254Z,21.47
2023-02-16T08:27:42.884Z,23.80
2023-02-16T08:28:47.032Z,20.90
2023-02-16T08:29:50.663Z,19.23
2023-02-16T08:30:53.996Z,20.20
2023-02-16T08:31:57.038Z,21.80
2023-02-16T08:33:01.250Z,20.97
2023-02-16T08:34:04.310Z,21.00
2023-02-16T08:35:08.138Z,20.40
2023-02-16T08:36:25.164Z,21.60
2023-02-16T08:37:27.438Z,22.00
2023-02-16T08:38:29.878Z,20.07
2023-02-16T08:39:33.324Z,20.23
2023-02-16T08:40:35.862Z,22.77
2023-02-16T08:41:38.231Z,21.90
2023-02-16T08:42:40.737Z,21.93
2023-02-16T08:43:43.278Z,21.03
2023-02-16T08:44:45.647Z,21.17
2023-02-16T08:45:48.627Z,23.27
2023-02-16T08:46:53.010Z,22.00
2023-02-16T08:47:55.775Z,20.77
2023-02-16T08:49:00.283Z,24.37
2023-02-16T08:50:02.585Z,21.97
2023-02-16T08:51:06.780Z,20.97
2023-02-16T08:52:10.259Z,23.20
2023-02-16T08:53:14.035Z,19.27
2023-02-16T08:54:19.372Z,21.70
2023-02-16T08:55:23.240Z,22.40
2023-02-16T08:56:26.523Z,19.97
2023-02-16T08:57:28.852Z,23.07
2023-02-16T08:58:31.713Z,21.70
2023-02-16T08:59:35.001Z,23.87
2023-02-16T09:00:38.741Z,22.33
2023-02-16T09:01:41.669Z,22.27
2023-02-16T09:02:44.809Z,22.20
2023-02-16T09:03:47.049Z,22.30
2023-02-16T09:04:49.866Z,20.80
2023-02-16T09:05:53.295Z,22.77
2023-02-16T09:06:58.624Z,22.33
2023-02-16T09:08:01.421Z,19.73
2023-02-16T09:09:05.167Z,19.77
2023-02-16T09:10:07.709Z,20.27
2023-02-16T09:11:13.864Z,19.77
2023-02-16T09:12:16.032Z,20.37
2023-02-16T09:13:18.519Z,21.03
2023-02-16T09:14:21.721Z,19.73
2023-02-16T09:15:24.042Z,20.07
2023-02-16T09:16:29.266Z,22.20
2023-02-16T09:17:31.540Z,22.27
2023-02-16T09:18:34.117Z,20.30
2023-02-16T09:19:36.282Z,21.33
2023-02-16T09:20:46.277Z,19.57
2023-02-16T09:21:51.202Z,22.07
2023-02-16T09:22:53.978Z,20.80
2023-02-16T09:23:56.606Z,22.20
2023-02-16T09:24:59.925Z,22.20
2023-02-16T09:26:03.056Z,24.50
2023-02-16T09:27:05.510Z,21.27
2023-02-16T09:28:09.554Z,20.77
2023-02-16T09:29:13.042Z,21.33
2023-02-16T09:30:15.849Z,24.13
2023-02-16T09:31:27.378Z,22.23
2023-02-16T09:32:30.519Z,21.30
2023-02-16T09:33:34.995Z,20.57
2023-02-16T09:34:37.189Z,23.90
2023-02-16T09:35:39.857Z,23.57
2023-02-16T09:36:45.075Z,21.80
2023-02-16T09:37:49.966Z,23.70
2023-02-16T09:38:56.074Z,21.70
2023-02-16T09:39:58.222Z,22.37
2023-02-16T09:41:15.772Z,20.37
2023-02-16T09:42:29.676Z,20.57
2023-02-16T09:44:07.233Z,21.70
2023-02-16T09:45:16.471Z,21.80
2023-02-16T09:46:22.680Z,22.57
2023-02-16T09:47:33.132Z,22.03
2023-02-16T09:48:38.789Z,19.47
2023-02-16T09:49:45.327Z,22.13
2023-02-16T09:50:54.298Z,19.73
2023-02-16T09:52:05.708Z,22.60
2023-02-16T09:53:15.805Z,20.37
2023-02-16T09:54:34.865Z,21.17
2023-02-16T09:55:47.437Z,21.23
2023-02-16T09:56:57.270Z,19.50
2023-02-16T09:58:22.271Z,20.77
2023-02-16T09:59:41.189Z,20.73
2023-02-16T10:00:55.818Z,21.97
2023-02-16T10:02:17.392Z,18.50
2023-02-16T10:03:40.439Z,18.57
2023-02-16T10:04:54.149Z,19.03
2023-02-16T10:06:22.424Z,21.87
2023-02-16T10:07:48.181Z,23.03
2023-02-16T10:09:04.447Z,22.13
2023-02-16T10:10:08.158Z,19.17
2023-02-16T10:11:34.274Z,22.70
2023-02-16T10:13:00.351Z,20.87
2023-02-16T10:14:12.995Z,22.83
2023-02-16T10:15:20.683Z,21.63
2023-02-16T10:16:30.149Z,23.37
2023-02-16T10:17:49.048Z,21.87
2023-02-16T10:18:53.866Z,20.70
2023-02-16T10:19:59.610Z,22.60
2023-02-16T10:21:05.281Z,22.67
2023-02-16T10:22:14.061Z,23.17
2023-02-16T10:23:35.069Z,21.40
2023-02-16T10:24:49.906Z,20.57
2023-02-16T10:26:02.904Z,22.20
2023-02-16T10:27:15.273Z,21.77
2023-02-16T10:28:22.819Z,22.67
2023-02-16T10:29:27.139Z,21.77
2023-02-16T10:30:32.443Z,20.70
2023-02-16T10:31:42.209Z,20.27
2023-02-16T10:32:56.144Z,22.80
2023-02-16T10:34:09.050Z,23.13
2023-02-16T10:35:18.290Z,19.10
2023-02-16T10:37:04.717Z,23.67
2023-02-16T10:38:28.587Z,21.10
2023-02-16T10:39:52.135Z,23.20
2023-02-16T10:41:06.640Z,21.77
2023-02-16T10:42:18.404Z,22.20
2023-02-16T10:43:46.648Z,22.27
2023-02-16T10:44:59.921Z,22.83
2023-02-16T10:46:03.614Z,23.70
2023-02-16T10:47:18.657Z,22.63
2023-02-16T10:48:23.767Z,23.77
2023-02-16T10:49:27.113Z,21.80
2023-02-16T10:50:39.049Z,21.77
2023-02-16T10:51:46.728Z,25.43
2023-02-16T10:52:49.718Z,21.63
2023-02-16T10:53:59.623Z,22.23
2023-02-16T10:55:02.407Z,23.93
2023-02-16T10:56:41.242Z,21.27
2023-02-16T10:57:44.128Z,23.03
2023-02-16T10:58:47.620Z,23.83
2023-02-16T10:59:50.768Z,20.83
2023-02-16T11:01:02.656Z,25.57
2023-02-16T11:02:18.195Z,21.67
2023-02-16T11:03:25.419Z,23.30
2023-02-16T11:04:30.618Z,21.13
2023-02-16T11:05:39.279Z,21.37
2023-02-16T11:06:42.031Z,21.00
2023-02-16T11:07:56.827Z,21.30
2023-02-16T11:09:01.214Z,21.20
2023-02-16T11:10:21.236Z,20.30
2023-02-16T11:11:41.486Z,22.87
2023-02-16T11:12:43.744Z,21.83
2023-02-16T11:13:50.358Z,18.03
2023-02-16T11:14:56.984Z,20.10
2023-02-16T11:16:05.225Z,18.03
2023-02-16T11:17:12.794Z,19.00
2023-02-16T11:18:34.203Z,19.08
2023-02-16T11:19:39.062Z,16.77
2023-02-16T11:20:42.569Z,21.05
2023-02-16T11:21:47.424Z,19.35
2023-02-16T11:22:50.043Z,20.83
2023-02-16T11:23:59.769Z,19.92
2023-02-16T11:25:34.954Z,18.30
2023-02-16T11:26:38.588Z,15.73
2023-02-16T11:27:51.392Z,16.42
2023-02-16T11:28:54.142Z,16.23
2023-02-16T11:30:23.463Z,16.88
2023-02-16T11:31:36.587Z,14.05
2023-02-16T11:32:39.723Z,14.82
2023-02-16T11:33:50.002Z,17.48
2023-02-16T11:34:53.686Z,16.02
2023-02-16T11:35:56.804Z,16.33
2023-02-16T11:37:12.685Z,17.92
2023-02-16T11:38:31.856Z,16.67
2023-02-16T11:39:38.265Z,15.98
2023-02-16T11:40:40.654Z,16.10
2023-02-16T11:41:48.600Z,17.60
2023-02-16T11:42:54.642Z,16.38
2023-02-16T11:43:58.389Z,16.88
2023-02-16T11:45:03.969Z,16.13
2023-02-16T11:46:16.864Z,16.15
2023-02-16T11:47:33.343Z,15.32
2023-02-16T11:48:36.757Z,15.85
2023-02-16T11:49:41.647Z,17.60
2023-02-16T11:51:00.441Z,17.30
2023-02-16T11:52:36.556Z,16.88
2023-02-16T11:53:42.680Z,17.90
2023-02-16T11:54:59.775Z,17.15
2023-02-16T11:56:25.417Z,18.02
2023-02-16T11:57:33.103Z,17.63
2023-02-16T11:58:35.958Z,15.32
2023-02-16T11:59:39.988Z,15.80
2023-02-16T12:00:57.704Z,18.90
2023-02-16T12:02:26.729Z,16.52
2023-02-16T12:03:39.337Z,18.83
2023-02-16T12:05:08.426Z,17.15
2023-02-16T12:06:39.348Z,17.00
2023-02-16T12:08:09.076Z,16.02
2023-02-16T12:09:14.502Z,17.70
2023-02-16T12:10:28.718Z,18.80
2023-02-16T12:11:40.936Z,16.35
2023-02-16T12:12:53.678Z,16.23
2023-02-16T12:14:28.867Z,17.13
2023-02-16T12:16:07.339Z,17.05
2023-02-16T12:17:36.828Z,19.20
2023-02-16T12:18:59.086Z,16.83
2023-02-16T12:20:41.681Z,18.55
2023-02-16T12:21:58.032Z,18.55
2023-02-16T12:23:08.388Z,16.77
2023-02-16T12:24:19.843Z,17.80
2023-02-16T12:25:38.249Z,16.73
2023-02-16T12:26:49.370Z,17.63
2023-02-16T12:28:20.511Z,17.50
2023-02-16T12:29:45.155Z,19.17
2023-02-16T12:30:55.381Z,18.35
2023-02-16T12:32:31.319Z,17.90
2023-02-16T12:33:55.026Z,18.85
2023-02-16T12:35:03.778Z,19.83
2023-02-16T12:36:18.535Z,18.60
2023-02-16T12:37:35.546Z,17.55
2023-02-16T12:38:52.065Z,17.95
2023-02-16T12:40:00.338Z,18.75
2023-02-16T12:41:27.411Z,16.45
2023-02-16T12:42:48.470Z,17.05
2023-02-16T12:43:56.146Z,17.27
2023-02-16T12:45:03.380Z,17.50
2023-02-16T12:46:17.768Z,17.92
2023-02-16T12:47:34.938Z,16.95
2023-02-16T12:48:54.076Z,19.88
2023-02-16T12:50:03.976Z,16.60
2023-02-16T12:51:12.698Z,18.17
2023-02-16T12:52:41.065Z,17.02
2023-02-16T12:54:04.299Z,17.08
2023-02-16T12:55:20.858Z,16.83
2023-02-16T12:56:31.854Z,20.05
2023-02-16T12:57:35.704Z,17.17
2023-02-16T12:58:42.700Z,22.58
2023-02-16T12:59:51.239Z,18.00
2023-02-16T13:01:01.226Z,16.98
2023-02-16T13:02:15.146Z,17.95
2023-02-16T13:03:42.709Z,16.70
2023-02-16T13:04:56.637Z,16.15
2023-02-16T13:06:20.213Z,16.98
2023-02-16T13:07:40.733Z,15.90
2023-02-16T13:09:05.828Z,19.00
2023-02-16T13:10:24.531Z,16.52
2023-02-16T13:12:13.387Z,16.90
2023-02-16T13:13:22.486Z,17.73
2023-02-16T13:14:30.068Z,19.80
2023-02-16T13:15:44.877Z,18.15
2023-02-16T13:16:52.579Z,16.77
2023-02-16T13:18:06.505Z,19.13
2023-02-16T13:19:13.307Z,20.05
2023-02-16T13:20:18.613Z,18.58
2023-02-16T13:21:51.263Z,18.77
2023-02-16T13:23:13.313Z,17.58
2023-02-16T13:24:56.212Z,17.97
2023-02-16T13:26:11.592Z,18.97
2023-02-16T13:27:45.621Z,17.15
2023-02-16T13:29:05.407Z,17.58
2023-02-16T13:30:38.136Z,14.65
2023-02-16T13:31:57.032Z,16.67
2023-02-16T13:33:14.672Z,18.17
2023-02-16T13:34:16.829Z,17.58
2023-02-16T13:35:37.222Z,17.17
2023-02-16T13:36:42.431Z,16.67
2023-02-16T13:38:01.692Z,16.77
2023-02-16T13:39:16.059Z,16.07
2023-02-16T13:40:37.741Z,15.20
2023-02-16T13:42:15.730Z,18.23
2023-02-16T13:43:24.279Z,16.85
2023-02-16T13:44:40.351Z,16.05
2023-02-16T13:45:45.871Z,16.60
2023-02-16T13:46:52.855Z,15.07
2023-02-16T13:47:57.430Z,15.65
2023-02-16T13:49:02.265Z,14.73
2023-02-16T13:50:24.906Z,15.77
2023-02-16T13:51:31.128Z,14.63
2023-02-16T13:52:41.992Z,15.27
2023-02-16T13:53:55.002Z,14.15
2023-02-16T13:54:59.302Z,13.00
2023-02-16T13:56:22.189Z,14.32
2023-02-16T13:58:05.940Z,13.97
2023-02-16T13:59:20.033Z,13.27
2023-02-16T14:00:29.214Z,14.77
2023-02-16T14:01:39.036Z,14.43
2023-02-16T14:02:57.156Z,15.40
2023-02-16T14:04:01.459Z,15.40
2023-02-16T14:05:12.689Z,15.10
2023-02-16T14:06:38.061Z,14.77
2023-02-16T14:07:40.292Z,15.70
2023-02-16T14:09:12.563Z,14.07
2023-02-16T14:10:15.503Z,13.27
2023-02-16T14:11:19.210Z,14.55
2023-02-16T14:12:40.828Z,12.55
2023-02-16T14:13:43.000Z,14.43
2023-02-16T14:14:51.508Z,13.38
2023-02-16T14:15:56.617Z,13.68
2023-02-16T14:17:21.751Z,13.23
2023-02-16T14:18:46.386Z,14.50
2023-02-16T14:20:13.444Z,16.53
2023-02-16T14:21:28.644Z,16.10
2023-02-16T14:22:49.368Z,13.90
2023-02-16T14:24:00.684Z,14.80
2023-02-16T14:25:07.438Z,15.85
2023-02-16T14:26:13.891Z,14.27
2023-02-16T14:27:54.545Z,13.60
2023-02-16T14:29:11.044Z,17.27
2023-02-16T14:30:36.463Z,14.90
2023-02-16T14:31:56.356Z,13.00
2023-02-16T14:33:05.433Z,14.27
2023-02-16T14:34:17.904Z,12.52
2023-02-16T14:35:27.160Z,15.07
2023-02-16T14:36:31.054Z,13.67
2023-02-16T14:37:46.015Z,11.82
2023-02-16T14:38:50.558Z,13.43
2023-02-16T14:40:07.258Z,14.87
2023-02-16T14:41:31.813Z,15.07
2023-02-16T14:42:36.265Z,13.83
2023-02-16T14:43:46.003Z,15.73
2023-02-16T14:45:12.293Z,17.60
2023-02-16T14:46:39.326Z,16.23